Time;durP1;ratioP1;P1;durP2;ratioP2;P2;SDS_P1;SDS_P2;PMS_P1;PMS_P2;Temp;Humidity;BMP_temperature;BMP_pressure;BME280_temperature;BME280_humidity;BME280_pressure;Samples;Min_cycle;Max_cycle;Signal;HPM_P1;HPM_P2
2022/01/10 00:02:09;;;;;;;50.20;23.50;;;1.40;99.90;;;;;;4994113;28;20535;-63
2022/01/10 00:04:36;;;;;;;53.93;23.23;;;1.40;99.90;;;;;;4993885;28;20215;-63
2022/01/10 00:07:03;;;;;;;46.23;21.70;;;1.30;99.90;;;;;;4994020;28;20226;-62
2022/01/10 00:09:30;;;;;;;50.63;23.03;;;1.30;99.90;;;;;;4993123;28;20223;-64
2022/01/10 00:11:57;;;;;;;47.50;22.70;;;1.20;99.90;;;;;;4992772;28;20219;-63
2022/01/10 00:14:24;;;;;;;56.73;24.83;;;1.20;99.90;;;;;;4993099;28;20204;-64
2022/01/10 00:16:50;;;;;;;50.30;24.60;;;1.10;99.90;;;;;;4983989;28;20203;-63
2022/01/10 00:19:19;;;;;;;53.43;25.27;;;1.10;99.90;;;;;;4993777;28;20660;-65
2022/01/10 00:21:46;;;;;;;53.13;24.40;;;1.10;99.90;;;;;;4993610;28;20265;-64
2022/01/10 00:24:12;;;;;;;48.77;23.60;;;1.10;99.90;;;;;;4993647;28;20218;-65
2022/01/10 00:26:39;;;;;;;48.90;23.23;;;1.10;99.90;;;;;;4993373;28;20227;-63
2022/01/10 00:29:06;;;;;;;50.13;23.13;;;1.00;99.90;;;;;;4993681;28;20230;-63
2022/01/10 00:31:33;;;;;;;54.70;24.30;;;1.00;99.90;;;;;;4993479;28;20680;-64
2022/01/10 00:33:59;;;;;;;50.87;23.63;;;0.90;99.90;;;;;;4993159;28;20200;-64
2022/01/10 00:36:28;;;;;;;34.13;18.57;;;0.80;99.90;;;;;;4993478;28;20214;-63
2022/01/10 00:38:54;;;;;;;35.57;17.97;;;0.80;99.90;;;;;;4993580;28;20238;-65
2022/01/10 00:41:21;;;;;;;40.10;18.53;;;0.70;99.90;;;;;;4992620;28;20208;-64
2022/01/10 00:43:50;;;;;;;33.43;17.63;;;0.60;99.90;;;;;;4992954;28;20207;-64
2022/01/10 00:46:17;;;;;;;29.10;15.80;;;0.60;99.90;;;;;;4993306;28;20234;-64
2022/01/10 00:48:44;;;;;;;38.40;17.73;;;0.50;99.90;;;;;;4992781;28;20209;-63
2022/01/10 00:51:11;;;;;;;27.63;14.73;;;0.50;99.90;;;;;;4993088;28;20224;-64
2022/01/10 00:53:39;;;;;;;26.40;14.93;;;0.50;99.90;;;;;;4993055;28;20207;-64
2022/01/10 00:56:08;;;;;;;28.80;15.03;;;0.50;99.90;;;;;;4993230;28;20210;-63
2022/01/10 00:58:36;;;;;;;27.90;14.40;;;0.50;99.90;;;;;;4992863;28;20207;-65
2022/01/10 01:01:03;;;;;;;28.00;15.80;;;0.40;99.90;;;;;;4954426;28;20224;-63
2022/01/10 01:03:30;;;;;;;30.23;15.80;;;0.40;99.90;;;;;;4954288;28;20209;-64
2022/01/10 01:05:57;;;;;;;33.23;16.57;;;0.40;99.90;;;;;;4954407;28;20217;-62
2022/01/10 01:08:25;;;;;;;29.17;16.00;;;0.40;99.90;;;;;;4954171;28;20212;-63
2022/01/10 01:13:51;;;;;;;27.37;16.63;;;0.40;99.90;;;;;;4954222;28;20182;-62
2022/01/10 01:16:29;;;;;;;32.57;16.70;;;0.30;99.90;;;;;;4954341;28;20220;-63
2022/01/10 01:19:25;;;;;;;28.30;15.47;;;0.30;99.90;;;;;;4954178;28;20671;-63
2022/01/10 01:24:36;;;;;;;27.33;15.30;;;0.30;99.90;;;;;;4951661;28;20224;-63
2022/01/10 01:27:05;;;;;;;29.33;16.20;;;0.40;99.90;;;;;;4952180;28;20571;-63
2022/01/10 01:29:33;;;;;;;28.20;15.50;;;0.30;99.90;;;;;;4953223;28;20590;-63
2022/01/10 01:32:00;;;;;;;26.70;15.27;;;0.30;99.90;;;;;;4953915;28;20745;-62
2022/01/10 01:34:27;;;;;;;26.07;14.60;;;0.30;99.90;;;;;;4959183;28;20228;-63
2022/01/10 01:36:56;;;;;;;18.73;10.37;;;0.30;99.90;;;;;;4960128;28;20204;-62
2022/01/10 01:39:25;;;;;;;18.27;10.10;;;0.20;99.90;;;;;;4960314;28;20617;-63
2022/01/10 01:42:00;;;;;;;15.80;9.77;;;0.20;99.90;;;;;;4960403;28;20215;-63
2022/01/10 01:44:28;;;;;;;18.17;10.03;;;0.30;99.90;;;;;;4960207;28;20189;-64
2022/01/10 01:46:56;;;;;;;17.17;9.87;;;0.30;99.90;;;;;;4959853;28;20216;-65
2022/01/10 01:49:22;;;;;;;16.20;10.03;;;0.30;99.90;;;;;;4959940;28;20214;-63
2022/01/10 01:51:49;;;;;;;15.43;9.77;;;0.30;99.90;;;;;;4959919;28;20235;-64
2022/01/10 01:54:17;;;;;;;16.13;9.80;;;0.30;99.90;;;;;;4960418;28;20220;-63
2022/01/10 01:56:45;;;;;;;17.00;10.23;;;0.40;99.90;;;;;;4959991;28;20240;-63
2022/01/10 01:59:12;;;;;;;19.57;10.90;;;0.30;99.90;;;;;;4969564;28;20598;-63
2022/01/10 02:01:40;;;;;;;16.93;10.40;;;0.30;99.90;;;;;;4998903;28;20567;-63
2022/01/10 02:04:07;;;;;;;18.20;10.87;;;0.30;99.90;;;;;;4999184;28;20215;-62
2022/01/10 02:06:34;;;;;;;17.93;11.33;;;0.30;99.90;;;;;;4998611;28;20207;-63
2022/01/10 02:09:01;;;;;;;22.43;12.80;;;0.30;99.90;;;;;;4998947;28;20226;-64
2022/01/10 02:11:27;;;;;;;21.60;12.83;;;0.30;99.90;;;;;;4998726;28;20239;-63
2022/01/10 02:13:54;;;;;;;20.63;12.43;;;0.20;99.90;;;;;;4998817;28;20377;-63
2022/01/10 02:16:32;;;;;;;21.80;13.10;;;0.20;99.90;;;;;;4998965;28;20651;-64
2022/01/10 02:19:00;;;;;;;18.50;11.97;;;0.20;99.90;;;;;;4998819;28;20191;-64
2022/01/10 02:21:28;;;;;;;19.87;11.87;;;0.10;99.90;;;;;;4998658;28;20203;-62
2022/01/10 02:23:57;;;;;;;22.83;13.43;;;0.10;99.90;;;;;;4998236;28;20211;-64
2022/01/10 02:26:24;;;;;;;21.93;13.03;;;0.10;99.90;;;;;;4998570;28;20553;-64
2022/01/10 02:28:51;;;;;;;22.67;13.47;;;0.10;99.90;;;;;;4998715;28;20207;-63
2022/01/10 02:31:18;;;;;;;15.87;10.07;;;0.10;99.90;;;;;;4998561;28;20734;-63
2022/01/10 02:33:46;;;;;;;16.43;10.33;;;0.10;99.90;;;;;;4998603;28;20230;-63
2022/01/10 02:36:19;;;;;;;18.40;10.93;;;0.10;99.90;;;;;;4998661;28;20214;-64
2022/01/10 02:38:49;;;;;;;16.43;10.50;;;0.00;99.90;;;;;;4998717;28;20196;-64
2022/01/10 02:41:24;;;;;;;18.17;11.07;;;0.10;99.90;;;;;;4998141;28;20298;-64
2022/01/10 02:43:52;;;;;;;17.80;11.30;;;0.10;99.90;;;;;;4998050;28;20253;-63
2022/01/10 02:46:19;;;;;;;20.43;11.93;;;0.20;99.90;;;;;;4994429;28;20210;-64
2022/01/10 02:48:46;;;;;;;19.70;12.70;;;0.20;99.90;;;;;;4995375;28;20641;-62
2022/01/10 02:51:13;;;;;;;27.13;15.00;;;0.10;99.90;;;;;;4995169;28;20589;-64
2022/01/10 02:53:40;;;;;;;22.13;13.77;;;0.20;99.90;;;;;;4995368;28;20203;-63
2022/01/10 02:56:08;;;;;;;19.10;12.57;;;0.10;99.90;;;;;;4995340;28;20210;-63
2022/01/10 02:58:35;;;;;;;20.33;13.43;;;0.20;99.90;;;;;;4995107;28;20218;-63
2022/01/10 03:01:02;;;;;;;19.03;11.70;;;0.10;99.90;;;;;;4995198;28;20207;-65
2022/01/10 03:03:30;;;;;;;19.70;11.27;;;0.10;99.90;;;;;;4994766;28;20211;-64
2022/01/10 03:05:57;;;;;;;18.27;11.17;;;0.10;99.90;;;;;;4995227;28;20203;-63
2022/01/10 03:08:25;;;;;;;20.27;11.97;;;0.00;99.90;;;;;;4994987;28;20230;-63
2022/01/10 03:10:52;;;;;;;19.37;11.77;;;-0.10;99.90;;;;;;4994920;28;20235;-63
2022/01/10 03:13:20;;;;;;;19.30;11.30;;;-0.10;99.90;;;;;;4994546;28;20215;-63
2022/01/10 03:15:48;;;;;;;21.37;12.13;;;-0.10;99.90;;;;;;4994889;28;20203;-64
2022/01/10 03:18:15;;;;;;;21.70;12.77;;;-0.10;99.90;;;;;;4994782;28;20258;-63
2022/01/10 03:20:42;;;;;;;19.77;11.63;;;-0.10;99.90;;;;;;4994572;28;20195;-63
2022/01/10 03:23:09;;;;;;;19.57;11.47;;;0.00;99.90;;;;;;4994292;28;20216;-64
2022/01/10 03:25:36;;;;;;;22.33;13.13;;;-0.10;99.90;;;;;;4994675;28;20684;-64
2022/01/10 03:28:03;;;;;;;23.80;14.03;;;-0.10;99.90;;;;;;4994727;28;20226;-63
2022/01/10 03:30:31;;;;;;;24.07;13.77;;;-0.10;99.90;;;;;;4994503;28;20231;-64
2022/01/10 03:33:01;;;;;;;23.20;13.53;;;-0.10;99.90;;;;;;4994567;28;20227;-63
2022/01/10 03:35:28;;;;;;;27.27;13.27;;;-0.20;99.90;;;;;;4994079;28;20215;-63
2022/01/10 03:37:55;;;;;;;24.80;13.50;;;-0.20;99.90;;;;;;4994495;28;20216;-63
2022/01/10 03:40:22;;;;;;;23.20;12.93;;;-0.20;99.90;;;;;;4994084;28;20207;-63
2022/01/10 03:42:48;;;;;;;20.63;12.20;;;-0.30;99.90;;;;;;4994356;28;20570;-64
2022/01/10 03:45:15;;;;;;;24.07;12.80;;;-0.30;99.90;;;;;;4993907;28;20208;-64
2022/01/10 03:47:43;;;;;;;18.87;11.23;;;-0.40;99.90;;;;;;4994208;28;20565;-63
2022/01/10 03:50:11;;;;;;;20.87;12.00;;;-0.40;99.90;;;;;;4993796;28;20207;-64
2022/01/10 03:52:37;;;;;;;20.63;12.00;;;-0.40;99.90;;;;;;4994239;28;20231;-63
2022/01/10 03:55:05;;;;;;;20.47;11.57;;;-0.40;99.90;;;;;;4993859;28;20215;-64
2022/01/10 03:57:32;;;;;;;23.30;12.20;;;-0.40;99.90;;;;;;4993562;28;20207;-65
2022/01/10 03:59:59;;;;;;;22.07;12.93;;;-0.40;99.90;;;;;;4993764;28;20443;-65
2022/01/10 04:02:28;;;;;;;23.73;12.60;;;-0.40;99.90;;;;;;4993943;28;20200;-63
2022/01/10 04:04:56;;;;;;;22.17;12.77;;;-0.40;99.90;;;;;;4993581;28;20222;-63
2022/01/10 04:07:23;;;;;;;23.20;12.73;;;-0.30;99.90;;;;;;4993522;28;20580;-65
2022/01/10 04:09:50;;;;;;;25.17;13.50;;;-0.30;99.90;;;;;;4993401;28;20219;-64
2022/01/10 04:12:17;;;;;;;23.60;13.37;;;-0.30;99.90;;;;;;4993202;28;20230;-63
2022/01/10 04:14:43;;;;;;;27.60;14.77;;;-0.30;99.90;;;;;;4993049;28;20234;-64
2022/01/10 04:17:10;;;;;;;26.27;13.80;;;-0.30;99.90;;;;;;4993075;28;20214;-63
2022/01/10 04:19:37;;;;;;;26.97;14.27;;;-0.30;99.90;;;;;;4993743;28;20633;-63
2022/01/10 04:22:05;;;;;;;28.63;15.30;;;-0.20;99.90;;;;;;4990288;28;20671;-63
2022/01/10 04:24:32;;;;;;;29.70;14.70;;;-0.10;99.90;;;;;;4992711;28;20210;-64
2022/01/10 04:26:59;;;;;;;27.17;15.20;;;-0.10;99.90;;;;;;4992922;28;20211;-64
2022/01/10 04:29:26;;;;;;;25.63;15.00;;;-0.10;99.90;;;;;;4990694;28;20195;-63
2022/01/10 04:31:52;;;;;;;26.40;14.67;;;-0.10;99.90;;;;;;4992722;28;20232;-64
2022/01/10 04:34:19;;;;;;;28.20;15.30;;;-0.10;99.90;;;;;;4990482;28;20930;-64
2022/01/10 04:36:46;;;;;;;28.13;15.83;;;0.00;99.90;;;;;;4993171;28;20260;-63
2022/01/10 04:39:14;;;;;;;27.60;15.00;;;0.00;99.90;;;;;;4992996;28;20203;-64
2022/01/10 04:41:41;;;;;;;28.23;15.77;;;0.00;99.90;;;;;;4992760;28;20206;-64
2022/01/10 04:44:08;;;;;;;26.53;14.50;;;0.00;99.90;;;;;;4992828;28;20218;-64
2022/01/10 04:46:35;;;;;;;28.10;14.13;;;0.00;99.90;;;;;;4992795;28;20219;-65
2022/01/10 04:49:02;;;;;;;29.07;15.00;;;0.00;99.90;;;;;;4991858;28;20226;-63
2022/01/10 04:51:31;;;;;;;29.97;15.13;;;0.00;99.90;;;;;;4979538;28;20220;-63
2022/01/10 04:53:58;;;;;;;26.13;14.20;;;0.00;99.90;;;;;;4972408;28;20620;-66
2022/01/10 04:56:26;;;;;;;24.93;14.97;;;0.10;99.90;;;;;;4991155;28;20211;-64
2022/01/10 04:58:53;;;;;;;26.33;14.77;;;0.10;99.90;;;;;;4991963;28;20207;-65
2022/01/10 05:01:20;;;;;;;30.07;15.83;;;0.10;99.90;;;;;;4993158;28;20294;-63
2022/01/10 05:03:48;;;;;;;30.20;16.03;;;0.00;99.90;;;;;;4992887;28;20362;-65
2022/01/10 05:06:15;;;;;;;28.93;15.93;;;0.00;99.90;;;;;;4992380;28;20214;-64
2022/01/10 05:08:42;;;;;;;31.67;15.97;;;0.00;99.90;;;;;;4992221;28;20621;-64
2022/01/10 05:11:09;;;;;;;29.73;16.97;;;0.00;99.90;;;;;;4992419;28;20310;-65
2022/01/10 05:13:37;;;;;;;26.33;15.00;;;0.00;99.90;;;;;;4992659;28;20590;-63
2022/01/10 05:16:04;;;;;;;27.27;15.70;;;-0.10;99.90;;;;;;4992005;28;20215;-66
2022/01/10 05:18:31;;;;;;;31.87;16.07;;;-0.10;99.90;;;;;;4992250;28;20243;-64
2022/01/10 05:20:58;;;;;;;28.10;15.33;;;-0.20;99.90;;;;;;4991791;28;20235;-65
2022/01/10 05:23:25;;;;;;;32.30;16.70;;;-0.30;99.90;;;;;;4992559;28;20683;-66
2022/01/10 05:25:52;;;;;;;30.43;16.20;;;-0.30;99.90;;;;;;4992359;28;20229;-64
2022/01/10 05:28:19;;;;;;;33.57;17.37;;;-0.40;99.90;;;;;;4992164;28;20652;-63
2022/01/10 05:30:49;;;;;;;36.13;17.37;;;-0.30;99.90;;;;;;4992300;28;20239;-64
2022/01/10 05:33:17;;;;;;;33.03;17.23;;;-0.20;99.90;;;;;;4992245;28;20196;-64
2022/01/10 05:35:45;;;;;;;30.33;16.33;;;-0.20;99.90;;;;;;4992587;28;20722;-65
2022/01/10 05:38:12;;;;;;;33.40;17.27;;;-0.20;99.90;;;;;;4992146;28;20305;-64
2022/01/10 05:40:40;;;;;;;27.67;14.90;;;-0.10;99.90;;;;;;4991839;28;20215;-64
2022/01/10 05:43:06;;;;;;;29.93;16.40;;;-0.20;99.90;;;;;;4992309;28;20206;-63
2022/01/10 05:45:33;;;;;;;33.30;16.50;;;-0.10;99.90;;;;;;4983434;28;20224;-63
2022/01/10 05:48:08;;;;;;;32.03;16.53;;;-0.20;99.90;;;;;;4973011;28;20296;-64
2022/01/10 05:50:37;;;;;;;30.27;15.23;;;-0.30;99.90;;;;;;4973064;28;20251;-63
2022/01/10 05:53:05;;;;;;;27.70;15.00;;;-0.30;99.90;;;;;;4972810;28;20234;-62
2022/01/10 05:55:32;;;;;;;29.73;15.50;;;-0.30;99.90;;;;;;4972957;28;20204;-63
2022/01/10 05:57:59;;;;;;;31.53;16.87;;;-0.30;99.90;;;;;;4983556;28;20203;-63
2022/01/10 06:00:26;;;;;;;28.97;15.57;;;-0.30;99.90;;;;;;4991441;28;20223;-63
2022/01/10 06:02:52;;;;;;;31.90;16.70;;;-0.30;99.90;;;;;;4992202;28;20207;-64
2022/01/10 06:05:21;;;;;;;32.33;17.03;;;-0.40;99.90;;;;;;4991902;28;20214;-63
2022/01/10 06:07:48;;;;;;;38.63;19.37;;;-0.40;99.90;;;;;;4991724;28;20203;-63
2022/01/10 06:10:15;;;;;;;37.30;20.40;;;-0.40;99.90;;;;;;4991820;28;20199;-64
2022/01/10 06:12:42;;;;;;;33.00;18.03;;;-0.40;99.90;;;;;;4991887;28;20231;-64
2022/01/10 06:15:09;;;;;;;36.80;18.93;;;-0.40;99.90;;;;;;4991479;28;20208;-63
2022/01/10 06:17:36;;;;;;;37.70;18.80;;;-0.40;99.90;;;;;;4992051;28;20205;-64
2022/01/10 06:20:03;;;;;;;35.47;18.23;;;-0.40;99.90;;;;;;4993941;28;20695;-65
2022/01/10 06:22:31;;;;;;;35.33;17.47;;;-0.40;99.90;;;;;;4995528;28;20247;-64
2022/01/10 06:24:58;;;;;;;36.60;17.63;;;-0.40;99.90;;;;;;4995457;28;20214;-63
2022/01/10 06:27:25;;;;;;;32.07;17.23;;;-0.50;99.90;;;;;;4980299;28;20560;-63
2022/01/10 06:29:52;;;;;;;36.57;18.03;;;-0.50;99.90;;;;;;4979245;28;20206;-64
2022/01/10 06:32:19;;;;;;;32.17;17.40;;;-0.50;99.90;;;;;;4995324;28;20231;-63
2022/01/10 06:34:45;;;;;;;36.70;17.13;;;-0.50;99.90;;;;;;4995320;28;20207;-64
2022/01/10 06:37:13;;;;;;;45.80;21.23;;;-0.50;99.90;;;;;;4995525;28;20204;-64
2022/01/10 06:39:41;;;;;;;36.60;19.37;;;-0.50;99.90;;;;;;4995014;28;20203;-65
2022/01/10 06:42:08;;;;;;;38.80;19.03;;;-0.40;99.90;;;;;;4995023;28;20204;-65
2022/01/10 06:44:35;;;;;;;37.00;18.93;;;-0.40;99.90;;;;;;4995024;28;20228;-63
2022/01/10 06:47:02;;;;;;;47.63;22.90;;;-0.30;99.90;;;;;;4995356;28;20246;-64
2022/01/10 06:49:28;;;;;;;38.87;20.03;;;-0.30;99.90;;;;;;4995394;28;20207;-65
2022/01/10 06:51:55;;;;;;;36.27;18.57;;;-0.30;99.90;;;;;;4994664;28;20234;-64
2022/01/10 06:54:22;;;;;;;37.33;19.30;;;-0.30;99.90;;;;;;4995053;28;20664;-63
2022/01/10 06:56:51;;;;;;;43.00;22.00;;;-0.30;99.90;;;;;;4994716;28;20214;-63
2022/01/10 06:59:18;;;;;;;33.17;18.63;;;-0.30;99.90;;;;;;4994930;28;20250;-64
2022/01/10 07:01:45;;;;;;;35.50;17.83;;;-0.40;99.90;;;;;;4994818;28;20214;-66
2022/01/10 07:04:12;;;;;;;35.30;17.60;;;-0.30;99.90;;;;;;4977503;28;20204;-64
2022/01/10 07:06:40;;;;;;;34.47;17.30;;;-0.30;99.90;;;;;;4975163;28;20707;-63
2022/01/10 07:09:07;;;;;;;40.40;19.57;;;-0.20;99.90;;;;;;4975555;28;20278;-65
2022/01/10 07:11:34;;;;;;;37.10;19.33;;;-0.20;99.90;;;;;;4994244;28;20296;-66
2022/01/10 07:14:02;;;;;;;36.63;18.80;;;-0.10;99.90;;;;;;4994309;28;20222;-66
2022/01/10 07:16:29;;;;;;;34.10;18.47;;;-0.10;99.90;;;;;;4994543;28;20210;-64
2022/01/10 07:18:55;;;;;;;36.27;18.97;;;-0.10;99.90;;;;;;4994274;28;20563;-65
2022/01/10 07:21:22;;;;;;;35.27;19.40;;;-0.10;99.90;;;;;;4994872;28;20214;-65
2022/01/10 07:23:49;;;;;;;34.37;18.00;;;0.00;99.90;;;;;;4994188;28;20199;-67
2022/01/10 07:26:16;;;;;;;39.87;19.00;;;0.00;99.90;;;;;;4994394;28;20207;-64
2022/01/10 07:28:44;;;;;;;39.63;20.50;;;0.00;99.90;;;;;;4994365;28;20569;-64
2022/01/10 07:31:12;;;;;;;37.53;19.33;;;0.00;99.90;;;;;;4993640;28;20295;-64
2022/01/10 07:33:39;;;;;;;35.47;17.13;;;-0.10;99.90;;;;;;4994049;28;20227;-65
2022/01/10 07:36:06;;;;;;;35.23;19.00;;;-0.10;99.90;;;;;;4994460;28;20656;-66
2022/01/10 07:38:35;;;;;;;32.33;17.50;;;-0.10;99.90;;;;;;4994101;28;20207;-64
2022/01/10 07:41:03;;;;;;;37.97;17.70;;;-0.10;99.90;;;;;;4994482;28;20222;-64
2022/01/10 07:43:30;;;;;;;33.70;17.57;;;0.00;99.90;;;;;;4993894;28;20278;-65
2022/01/10 07:45:56;;;;;;;41.27;19.80;;;0.00;99.90;;;;;;4994047;28;20301;-64
2022/01/10 07:48:25;;;;;;;37.70;19.53;;;0.00;99.90;;;;;;4994192;28;20207;-65
2022/01/10 07:50:52;;;;;;;37.40;19.40;;;0.00;99.90;;;;;;4993485;28;20242;-65
2022/01/10 07:53:19;;;;;;;36.90;19.27;;;0.00;99.90;;;;;;4993789;28;20227;-65
2022/01/10 07:55:46;;;;;;;40.40;21.67;;;0.00;99.90;;;;;;4993493;28;20569;-65
2022/01/10 07:58:13;;;;;;;37.03;17.87;;;0.00;99.90;;;;;;4994150;28;20684;-64
2022/01/10 08:00:40;;;;;;;33.07;17.27;;;0.00;99.90;;;;;;4993623;28;20246;-64
2022/01/10 08:03:06;;;;;;;30.83;16.87;;;0.00;99.90;;;;;;4994344;28;20242;-64
2022/01/10 08:05:35;;;;;;;35.60;17.73;;;0.00;99.90;;;;;;4994071;28;20235;-65
2022/01/10 08:08:01;;;;;;;38.00;18.40;;;0.00;99.90;;;;;;4994012;28;20207;-63
2022/01/10 08:10:28;;;;;;;36.33;18.13;;;0.00;99.90;;;;;;4994877;28;20226;-66
2022/01/10 08:12:55;;;;;;;33.93;17.47;;;0.00;99.90;;;;;;4993224;28;20229;-66
2022/01/10 08:15:22;;;;;;;37.37;19.30;;;0.10;99.90;;;;;;4994024;28;20207;-65
2022/01/10 08:17:49;;;;;;;38.10;20.03;;;0.00;99.90;;;;;;4993171;28;20219;-66
2022/01/10 08:20:16;;;;;;;36.83;19.17;;;0.00;99.90;;;;;;4993251;28;20210;-64
2022/01/10 08:22:45;;;;;;;37.57;18.27;;;0.00;99.90;;;;;;4993723;28;20662;-64
2022/01/10 08:25:12;;;;;;;38.47;19.03;;;-0.10;99.90;;;;;;4993283;28;20207;-66
2022/01/10 08:27:39;;;;;;;33.93;17.33;;;-0.10;99.90;;;;;;4993704;28;20250;-64
2022/01/10 08:30:07;;;;;;;35.47;17.37;;;-0.20;99.90;;;;;;4993975;28;20587;-65
2022/01/10 08:32:34;;;;;;;33.53;17.90;;;-0.10;99.90;;;;;;4993864;28;20684;-65
2022/01/10 08:35:01;;;;;;;37.13;20.13;;;-0.10;99.90;;;;;;4993434;28;20351;-66
2022/01/10 08:37:28;;;;;;;29.47;16.93;;;0.00;99.90;;;;;;4993525;28;20211;-66
2022/01/10 08:39:57;;;;;;;34.10;17.53;;;0.00;99.90;;;;;;4992724;28;20226;-65
2022/01/10 08:42:26;;;;;;;33.73;17.90;;;0.00;99.90;;;;;;4992355;28;20203;-67
2022/01/10 08:44:53;;;;;;;31.53;16.80;;;0.00;99.90;;;;;;4992929;28;20689;-64
2022/01/10 08:47:21;;;;;;;32.70;17.20;;;0.00;99.90;;;;;;4992488;28;20282;-65
2022/01/10 08:49:48;;;;;;;31.80;17.67;;;0.00;99.90;;;;;;4992264;28;20699;-65
2022/01/10 08:52:16;;;;;;;33.10;17.90;;;0.00;99.90;;;;;;4992316;28;20226;-65
2022/01/10 08:54:43;;;;;;;38.43;19.93;;;0.00;99.90;;;;;;4992728;28;20210;-65
2022/01/10 08:57:11;;;;;;;37.00;19.20;;;0.00;99.90;;;;;;4992816;28;20207;-65
2022/01/10 08:59:38;;;;;;;36.63;17.70;;;0.00;99.90;;;;;;4992314;28;20334;-64
2022/01/10 09:02:05;;;;;;;35.27;17.63;;;0.00;99.90;;;;;;4993221;28;20211;-65
2022/01/10 09:04:31;;;;;;;31.57;17.10;;;0.00;99.90;;;;;;4992311;28;20222;-66
2022/01/10 09:07:00;;;;;;;32.70;17.43;;;0.10;99.90;;;;;;4992836;28;20207;-67
2022/01/10 09:09:27;;;;;;;34.17;17.57;;;0.00;99.90;;;;;;4992879;28;20211;-67
2022/01/10 09:11:54;;;;;;;32.57;17.10;;;0.00;99.90;;;;;;4992538;28;20210;-65
2022/01/10 09:14:22;;;;;;;35.50;18.07;;;0.00;99.90;;;;;;4992757;28;20234;-65
2022/01/10 09:16:49;;;;;;;32.57;16.67;;;0.00;99.90;;;;;;4992739;28;20203;-65
2022/01/10 09:19:16;;;;;;;32.47;17.10;;;0.00;99.90;;;;;;4992337;28;20211;-66
2022/01/10 09:21:43;;;;;;;29.33;16.50;;;-0.10;99.90;;;;;;4992652;28;20203;-66
2022/01/10 09:24:10;;;;;;;29.03;15.77;;;-0.10;99.90;;;;;;4992810;28;20204;-66
2022/01/10 09:26:36;;;;;;;29.50;16.07;;;-0.20;99.90;;;;;;4992458;28;20562;-64
2022/01/10 09:29:04;;;;;;;30.57;16.50;;;-0.30;99.90;;;;;;4992340;28;20615;-65
2022/01/10 09:31:33;;;;;;;34.43;17.40;;;-0.40;99.90;;;;;;4991848;28;20210;-64
2022/01/10 09:34:00;;;;;;;34.60;16.73;;;-0.40;99.90;;;;;;4992582;28;20255;-67
2022/01/10 09:36:29;;;;;;;32.30;16.90;;;-0.50;99.90;;;;;;4992078;28;20718;-66
2022/01/10 09:38:58;;;;;;;31.70;17.13;;;-0.50;99.90;;;;;;4992596;28;20227;-66
2022/01/10 09:41:25;;;;;;;30.73;16.70;;;-0.50;99.90;;;;;;4992471;28;20258;-64
2022/01/10 09:43:56;;;;;;;32.43;16.43;;;-0.60;99.90;;;;;;4992639;28;20222;-64
2022/01/10 09:46:23;;;;;;;31.17;17.20;;;-0.70;99.90;;;;;;4992439;28;20350;-65
2022/01/10 09:48:51;;;;;;;32.33;16.63;;;-0.70;99.90;;;;;;4992190;28;20576;-65
2022/01/10 09:51:19;;;;;;;28.83;16.50;;;-0.80;99.90;;;;;;4991958;28;20235;-66
2022/01/10 09:53:46;;;;;;;28.63;15.37;;;-0.80;99.90;;;;;;4992921;28;20639;-67
2022/01/10 09:56:14;;;;;;;32.23;15.17;;;-0.70;99.90;;;;;;5007037;28;20208;-64
2022/01/10 09:58:41;;;;;;;28.93;14.93;;;-0.80;99.90;;;;;;5015778;28;20314;-66
2022/01/10 10:01:08;;;;;;;27.30;15.10;;;-0.90;99.90;;;;;;5016120;28;20204;-66
2022/01/10 10:03:35;;;;;;;27.67;15.47;;;-0.90;99.90;;;;;;5011989;28;20399;-67
2022/01/10 10:06:03;;;;;;;24.83;15.10;;;-0.80;99.90;;;;;;4996323;28;20211;-65
2022/01/10 10:08:30;;;;;;;27.47;15.23;;;-0.80;99.90;;;;;;4995990;28;20211;-67
2022/01/10 10:10:56;;;;;;;28.17;15.03;;;-0.80;99.90;;;;;;4995627;28;20207;-67
2022/01/10 10:13:23;;;;;;;24.97;13.97;;;-0.80;99.90;;;;;;4995567;28;20230;-67
2022/01/10 10:15:50;;;;;;;25.13;13.87;;;-0.90;99.90;;;;;;4995769;28;20573;-66
2022/01/10 10:18:20;;;;;;;27.40;14.47;;;-0.90;99.90;;;;;;4995670;28;20204;-65
2022/01/10 10:20:47;;;;;;;28.50;16.20;;;-0.90;99.90;;;;;;4996154;28;20191;-65
2022/01/10 10:23:18;;;;;;;26.63;15.37;;;-0.90;99.90;;;;;;4995772;28;20450;-65
2022/01/10 10:25:53;;;;;;;26.43;15.03;;;-0.80;99.90;;;;;;4995993;28;20322;-65
2022/01/10 10:28:20;;;;;;;26.83;14.37;;;-0.80;99.90;;;;;;4996002;28;20230;-65
2022/01/10 10:30:47;;;;;;;27.13;14.73;;;-0.90;99.90;;;;;;4995809;28;20214;-66
2022/01/10 10:33:16;;;;;;;30.40;15.47;;;-1.00;99.90;;;;;;4995742;28;20234;-65
2022/01/10 10:35:44;;;;;;;28.40;14.10;;;-1.00;99.90;;;;;;4995768;28;20656;-66
2022/01/10 10:38:12;;;;;;;25.23;14.13;;;-1.10;99.90;;;;;;4995937;28;20211;-67
2022/01/10 10:40:45;;;;;;;25.97;13.10;;;-1.10;99.90;;;;;;4996005;28;20246;-64
2022/01/10 10:43:13;;;;;;;23.93;13.23;;;-1.10;99.90;;;;;;4995294;28;20214;-64
2022/01/10 10:45:40;;;;;;;26.70;13.33;;;-1.10;99.90;;;;;;4995056;28;20591;-66
2022/01/10 10:48:09;;;;;;;26.47;13.70;;;-1.20;99.90;;;;;;4995542;28;20728;-67
2022/01/10 10:50:42;;;;;;;24.60;14.90;;;-1.20;99.90;;;;;;4995025;28;20296;-66
2022/01/10 10:53:10;;;;;;;24.67;14.73;;;-1.20;99.90;;;;;;4994784;28;20211;-66
2022/01/10 10:55:38;;;;;;;26.80;15.17;;;-1.20;99.90;;;;;;4995248;28;20257;-66
2022/01/10 10:58:07;;;;;;;24.70;14.13;;;-1.30;99.90;;;;;;4994935;28;20262;-66
2022/01/10 11:00:35;;;;;;;25.20;13.93;;;-1.30;99.90;;;;;;4994712;28;20247;-65
2022/01/10 11:03:03;;;;;;;24.97;13.50;;;-1.30;99.90;;;;;;4994873;28;20269;-65
2022/01/10 11:05:31;;;;;;;24.40;13.70;;;-1.30;99.90;;;;;;4993800;28;20294;-65
2022/01/10 11:07:58;;;;;;;22.13;13.10;;;-1.40;99.90;;;;;;4994712;28;20199;-66
2022/01/10 11:10:25;;;;;;;24.30;13.00;;;-1.50;99.90;;;;;;4994356;28;20218;-66
2022/01/10 11:12:55;;;;;;;22.60;13.47;;;-1.50;99.90;;;;;;4994473;28;20207;-66
2022/01/10 11:15:24;;;;;;;26.80;13.93;;;-1.50;99.90;;;;;;4994275;28;20219;-65
2022/01/10 11:17:55;;;;;;;25.40;13.93;;;-1.50;99.90;;;;;;4994903;28;20219;-64
2022/01/10 11:20:25;;;;;;;22.93;13.67;;;-1.50;99.90;;;;;;4994518;28;20247;-64
2022/01/10 11:22:55;;;;;;;25.67;14.27;;;-1.50;99.90;;;;;;4994860;28;20211;-65
2022/01/10 11:25:27;;;;;;;28.40;14.83;;;-1.50;99.90;;;;;;4994213;28;20211;-65
2022/01/10 11:27:57;;;;;;;26.27;14.10;;;-1.60;99.90;;;;;;4994867;28;20793;-66
2022/01/10 11:30:32;;;;;;;24.77;14.50;;;-1.60;99.90;;;;;;4994210;28;20204;-67
2022/01/10 11:33:03;;;;;;;28.17;14.93;;;-1.50;99.90;;;;;;4994240;28;20283;-66
2022/01/10 11:35:32;;;;;;;28.07;14.63;;;-1.60;99.90;;;;;;4994512;28;20198;-65
2022/01/10 11:38:00;;;;;;;24.60;13.47;;;-1.60;99.90;;;;;;4994144;28;20214;-65
2022/01/10 11:40:27;;;;;;;24.93;13.93;;;-1.70;99.90;;;;;;4993905;28;20196;-65
2022/01/10 11:42:57;;;;;;;21.43;12.90;;;-1.70;99.90;;;;;;4994343;28;20247;-67
2022/01/10 11:45:25;;;;;;;23.20;13.67;;;-1.70;99.90;;;;;;4993240;28;20296;-66
2022/01/10 11:48:16;;;;;;;25.03;13.70;;;-1.80;99.90;;;;;;4994078;28;20199;-67
2022/01/10 11:50:45;;;;;;;25.27;13.57;;;-1.80;99.90;;;;;;4994361;28;20204;-66
2022/01/10 11:53:13;;;;;;;22.37;13.00;;;-1.80;99.90;;;;;;4993951;28;20228;-67
2022/01/10 11:55:44;;;;;;;22.77;12.73;;;-1.90;99.90;;;;;;4994282;28;20210;-67
2022/01/10 11:58:18;;;;;;;23.10;13.07;;;-1.90;99.90;;;;;;4993485;28;20206;-66
2022/01/10 12:00:45;;;;;;;24.97;13.93;;;-1.90;99.90;;;;;;4993855;28;20246;-64
2022/01/10 12:03:13;;;;;;;24.57;14.07;;;-1.90;99.90;;;;;;4993473;28;20207;-66
2022/01/10 12:05:41;;;;;;;21.57;12.43;;;-1.90;99.90;;;;;;4995286;28;20200;-64
2022/01/10 12:08:08;;;;;;;22.77;12.40;;;-1.90;99.90;;;;;;4993709;28;20204;-65
2022/01/10 12:10:35;;;;;;;24.10;13.30;;;-2.00;99.90;;;;;;4993811;28;20215;-67
2022/01/10 12:13:05;;;;;;;24.07;12.77;;;-2.00;99.90;;;;;;4993533;28;20210;-66
2022/01/10 12:15:36;;;;;;;21.07;12.57;;;-2.00;99.90;;;;;;4994011;28;20233;-65
2022/01/10 12:18:04;;;;;;;20.73;11.87;;;-1.90;99.90;;;;;;4993394;28;20203;-66
2022/01/10 12:20:31;;;;;;;22.40;11.83;;;-2.00;99.90;;;;;;4994335;28;20214;-66
2022/01/10 12:23:00;;;;;;;25.30;12.37;;;-2.00;99.90;;;;;;4993684;28;20215;-67
2022/01/10 12:25:28;;;;;;;21.27;12.03;;;-2.00;99.90;;;;;;4994636;28;20206;-67
2022/01/10 12:27:57;;;;;;;22.50;12.83;;;-2.00;99.90;;;;;;4991846;28;20287;-69
2022/01/10 12:30:25;;;;;;;22.47;12.97;;;-1.90;99.90;;;;;;4992879;28;20218;-66
2022/01/10 12:32:53;;;;;;;21.50;12.63;;;-1.90;99.90;;;;;;4981666;28;20205;-66
2022/01/10 12:35:20;;;;;;;24.30;13.57;;;-1.80;99.90;;;;;;4993289;28;20537;-66
2022/01/10 12:37:47;;;;;;;22.70;12.67;;;-1.80;99.90;;;;;;4988647;28;20223;-67
2022/01/10 12:40:15;;;;;;;23.93;13.50;;;-1.70;99.90;;;;;;4993248;28;20203;-66